Esfahan, Iran
Current Conditions -  °F | °C
As of 5:30 PM on Saturday 20 Dec 2014 (Local Time) from OIFM Reporting Station
Haze Haze  
Wind Chill: 50°   Ceiling: Unl
Heat Index: 50°   Visibility: 1.2mi
Dew Point: 23°   Wind: 7mph
Humidity: 35%   Direction: 130°SE
Pressure: 30.06"   Gusts: NA
Location:  32.68°N, 51.68°E
Report Text: OIFM 201330Z 13006KT 2000 HZ NSC 10/M05 Q1018 A3008
Loading
Personal Weather Stations






























Interactive Weather Map New forecast layout! Learn more

10-Day Weather Forecast

Advertisements
Track Severe Weather on mobile